Time;durP1;ratioP1;P1;durP2;ratioP2;P2;SDS_P1;SDS_P2;PMS_P1;PMS_P2;Temp;Humidity;BMP_temperature;BMP_pressure;BME280_temperature;BME280_humidity;BME280_pressure;Samples;Min_cycle;Max_cycle;Signal;HPM_P1;HPM_P2
2022/12/22 03:27:01;;;;;;;18.17;14.35;;;10.70;99.90;;;;;;4994385;28;20097;-83
2022/12/22 03:29:26;;;;;;;20.50;14.98;;;10.70;99.90;;;;;;4978614;28;20030;-83
2022/12/22 03:31:52;;;;;;;19.25;14.65;;;10.60;99.90;;;;;;4978604;28;20026;-84
2022/12/22 03:34:18;;;;;;;18.95;14.77;;;10.70;99.90;;;;;;4994619;28;20030;-82
2022/12/22 03:36:43;;;;;;;21.65;15.93;;;10.70;99.90;;;;;;4978050;28;20038;-83
2022/12/22 03:39:09;;;;;;;21.02;14.93;;;10.70;99.90;;;;;;5010379;28;20105;-83
2022/12/22 03:47:03;;;;;;;22.83;16.52;;;10.70;99.90;;;;;;4996137;28;20545;-83
2022/12/22 03:49:29;;;;;;;18.27;14.20;;;10.70;99.90;;;;;;4995019;28;20046;-83
2022/12/22 03:51:54;;;;;;;16.83;13.70;;;10.70;99.90;;;;;;4996000;28;20022;-83
2022/12/22 03:54:23;;;;;;;18.55;15.18;;;10.70;99.90;;;;;;4997203;28;20086;-84
2022/12/22 03:56:49;;;;;;;18.60;14.98;;;10.70;99.90;;;;;;5010652;28;20030;-84
2022/12/22 03:59:15;;;;;;;19.10;14.07;;;10.70;99.90;;;;;;5010343;28;20033;-84
2022/12/22 04:01:52;;;;;;;18.67;15.23;;;10.70;99.90;;;;;;4995734;28;20076;-84
2022/12/22 04:04:20;;;;;;;16.52;13.73;;;10.70;99.90;;;;;;5010532;28;20044;-84
2022/12/22 04:06:46;;;;;;;22.10;16.75;;;10.70;99.90;;;;;;4994789;28;20041;-84
2022/12/22 04:09:12;;;;;;;19.35;15.63;;;10.70;99.90;;;;;;4994107;28;20018;-89
2022/12/22 04:14:24;;;;;;;19.15;14.18;;;10.70;99.90;;;;;;4974359;28;20121;-84
2022/12/22 04:16:49;;;;;;;20.17;15.45;;;10.60;99.90;;;;;;4994014;28;20161;-84
2022/12/22 04:19:15;;;;;;;18.13;14.55;;;10.60;99.90;;;;;;4994131;28;20105;-85
2022/12/22 04:21:41;;;;;;;20.95;17.13;;;10.60;99.90;;;;;;5010179;28;20019;-84
2022/12/22 04:24:08;;;;;;;20.30;16.20;;;10.70;99.90;;;;;;4993597;28;20024;-84
2022/12/22 04:26:33;;;;;;;18.17;15.23;;;10.70;99.90;;;;;;5009805;28;20031;-84
2022/12/22 04:28:59;;;;;;;22.42;16.75;;;10.70;99.90;;;;;;4993584;28;20026;-84
2022/12/22 04:31:25;;;;;;;21.05;15.82;;;10.70;99.90;;;;;;4993525;28;20027;-84
2022/12/22 04:33:51;;;;;;;26.30;17.48;;;10.70;99.90;;;;;;4993987;28;20398;-84
2022/12/22 04:36:17;;;;;;;25.90;16.98;;;10.70;99.90;;;;;;4993408;28;20030;-84
2022/12/22 04:38:43;;;;;;;24.80;17.27;;;10.70;99.90;;;;;;4993254;28;20022;-84
2022/12/22 04:41:08;;;;;;;20.83;16.65;;;10.60;99.90;;;;;;4993001;28;20057;-84
2022/12/22 04:43:35;;;;;;;23.88;17.25;;;10.60;99.90;;;;;;4994715;28;20034;-83
2022/12/22 04:46:00;;;;;;;21.98;16.50;;;10.70;99.90;;;;;;5009910;28;20501;-84
2022/12/22 04:48:27;;;;;;;23.20;16.48;;;10.60;99.90;;;;;;4993191;28;20027;-84
2022/12/22 04:50:55;;;;;;;20.08;15.52;;;10.60;99.90;;;;;;5009739;28;20018;-84
2022/12/22 04:53:21;;;;;;;17.70;14.30;;;10.60;99.90;;;;;;5009514;28;20021;-84
2022/12/22 04:55:58;;;;;;;25.95;16.70;;;10.60;99.90;;;;;;5009659;28;20011;-84
2022/12/22 04:58:24;;;;;;;24.35;17.17;;;10.60;99.90;;;;;;5010542;28;20062;-84
2022/12/22 05:00:49;;;;;;;22.00;15.65;;;10.70;99.90;;;;;;4996433;28;20052;-84
2022/12/22 05:03:15;;;;;;;20.25;14.98;;;10.60;99.90;;;;;;5009447;28;20022;-85
2022/12/22 05:05:41;;;;;;;21.45;16.15;;;10.70;99.90;;;;;;4976790;28;20023;-84
2022/12/22 05:08:06;;;;;;;24.48;17.80;;;10.70;99.90;;;;;;4993192;28;20462;-84
2022/12/22 05:10:39;;;;;;;25.02;17.98;;;10.70;99.90;;;;;;5009378;28;20014;-84
2022/12/22 05:13:05;;;;;;;25.95;17.67;;;10.70;99.90;;;;;;4993128;28;20031;-84
2022/12/22 05:15:33;;;;;;;27.67;18.30;;;10.70;99.90;;;;;;4994399;28;20102;-85
2022/12/22 05:18:00;;;;;;;28.20;19.15;;;10.70;99.90;;;;;;5009353;28;20030;-84
2022/12/22 05:20:29;;;;;;;22.90;15.57;;;10.70;99.90;;;;;;4994220;28;20061;-84
2022/12/22 05:22:56;;;;;;;26.65;18.08;;;10.70;99.90;;;;;;4993482;28;20168;-85
2022/12/22 05:25:21;;;;;;;27.52;18.13;;;10.70;99.90;;;;;;5009587;28;20019;-86
2022/12/22 05:27:49;;;;;;;28.27;17.88;;;10.70;99.90;;;;;;4993662;28;20522;-84
2022/12/22 05:30:16;;;;;;;27.30;18.38;;;10.70;99.90;;;;;;5001895;28;20026;-84
2022/12/22 05:32:42;;;;;;;31.80;18.60;;;10.70;99.90;;;;;;5018328;28;20033;-85
2022/12/22 05:35:08;;;;;;;27.65;18.15;;;10.70;99.90;;;;;;5011139;28;20030;-83
2022/12/22 05:37:34;;;;;;;30.90;19.48;;;10.70;99.90;;;;;;4995398;28;20130;-83
2022/12/22 05:40:00;;;;;;;29.73;18.90;;;10.70;99.90;;;;;;4993943;28;20450;-83
2022/12/22 05:42:34;;;;;;;35.50;20.13;;;10.70;99.90;;;;;;5009905;28;20085;-84
2022/12/22 05:45:14;;;;;;;33.05;20.48;;;10.70;99.90;;;;;;4994500;28;20061;-83
2022/12/22 05:47:41;;;;;;;46.58;21.70;;;10.70;99.90;;;;;;4994536;28;20039;-84
2022/12/22 05:50:07;;;;;;;37.13;20.40;;;10.80;99.90;;;;;;4993877;28;20030;-84
2022/12/22 05:52:33;;;;;;;45.47;21.90;;;10.70;99.90;;;;;;5008816;28;20021;-85
2022/12/22 05:54:59;;;;;;;37.78;21.23;;;10.70;99.90;;;;;;4997123;28;20101;-85
2022/12/22 05:57:25;;;;;;;32.63;21.02;;;10.80;99.90;;;;;;4980172;28;20038;-90
2022/12/22 05:59:51;;;;;;;35.17;21.13;;;10.70;99.90;;;;;;4996349;28;20061;-84
2022/12/22 06:02:16;;;;;;;35.03;21.42;;;10.70;99.90;;;;;;4996926;28;20050;-84
2022/12/22 06:04:42;;;;;;;40.63;21.73;;;10.70;99.90;;;;;;4980335;28;20023;-84
2022/12/22 06:07:08;;;;;;;34.25;20.33;;;10.80;99.90;;;;;;4980449;28;20034;-84
2022/12/22 06:09:33;;;;;;;38.13;21.58;;;10.70;99.90;;;;;;4996232;28;20022;-84
2022/12/22 06:11:59;;;;;;;35.38;21.15;;;10.80;99.90;;;;;;4980938;28;20332;-84
2022/12/22 06:14:25;;;;;;;38.72;22.15;;;10.80;99.90;;;;;;4997492;28;20466;-84
2022/12/22 06:16:50;;;;;;;34.05;20.50;;;10.80;99.90;;;;;;4995459;28;20355;-84
2022/12/22 06:19:16;;;;;;;37.28;21.65;;;10.80;99.90;;;;;;4980227;28;20072;-85
2022/12/22 06:21:42;;;;;;;34.50;20.27;;;10.80;99.90;;;;;;4996549;28;20027;-84
2022/12/22 06:24:07;;;;;;;33.65;20.02;;;10.80;99.90;;;;;;4996866;28;20033;-85
2022/12/22 06:26:33;;;;;;;37.83;20.50;;;10.80;99.90;;;;;;4997448;28;20033;-85
2022/12/22 06:28:59;;;;;;;38.17;20.77;;;10.80;99.90;;;;;;4999856;28;20007;-86
2022/12/22 06:31:24;;;;;;;35.90;20.58;;;10.80;99.90;;;;;;5004230;28;20034;-86
2022/12/22 06:33:50;;;;;;;27.92;18.25;;;10.80;99.90;;;;;;5020326;28;20037;-84
2022/12/22 06:36:16;;;;;;;33.45;20.23;;;10.80;99.90;;;;;;5020991;28;20037;-81
2022/12/22 06:38:41;;;;;;;44.72;20.55;;;10.80;99.90;;;;;;5003869;28;20037;-87
2022/12/22 06:41:07;;;;;;;36.88;18.95;;;10.80;99.90;;;;;;5003699;28;20035;-86
2022/12/22 06:43:33;;;;;;;35.88;19.27;;;10.80;99.90;;;;;;5019268;28;20031;-91
2022/12/22 06:45:58;;;;;;;33.30;19.02;;;10.80;99.90;;;;;;4997681;28;20030;-85
2022/12/22 06:48:24;;;;;;;35.63;20.92;;;10.80;99.90;;;;;;4980797;28;20364;-85
2022/12/22 06:50:49;;;;;;;44.20;20.77;;;10.80;99.90;;;;;;4980234;28;20049;-85
2022/12/22 06:53:15;;;;;;;38.95;20.23;;;10.70;99.90;;;;;;4979636;28;20026;-83
2022/12/22 06:59:07;;;;;;;50.80;21.67;;;10.70;99.90;;;;;;4997539;28;20053;-85
2022/12/22 07:01:46;;;;;;;;;;;;;;;;;;;;;
2022/12/22 07:04:18;;;;;;;38.38;19.75;;;10.80;99.90;;;;;;4996626;28;20022;-85
2022/12/22 07:06:44;;;;;;;34.70;18.52;;;10.70;99.90;;;;;;4981610;28;20054;-85
2022/12/22 07:09:09;;;;;;;40.28;19.70;;;10.70;99.90;;;;;;4996734;28;20027;-85
2022/12/22 07:11:35;;;;;;;39.40;18.13;;;10.70;99.90;;;;;;4980089;28;20029;-86
2022/12/22 07:14:00;;;;;;;32.05;17.25;;;10.70;99.90;;;;;;4997763;28;20022;-85
2022/12/22 07:16:26;;;;;;;33.60;17.70;;;10.70;99.90;;;;;;4996086;28;20034;-85
2022/12/22 07:18:52;;;;;;;37.80;18.48;;;10.70;99.90;;;;;;4980331;28;20447;-85
2022/12/22 07:21:17;;;;;;;40.10;18.23;;;10.70;99.90;;;;;;4996013;28;20062;-86
2022/12/22 07:23:43;;;;;;;32.03;16.80;;;10.70;99.90;;;;;;4996524;28;20033;-85
2022/12/22 07:26:10;;;;;;;30.00;15.23;;;10.70;99.90;;;;;;4996395;28;20018;-84
2022/12/22 07:28:37;;;;;;;29.63;15.95;;;10.70;99.90;;;;;;4996579;28;20026;-84
2022/12/22 07:31:04;;;;;;;28.27;15.38;;;10.70;99.90;;;;;;4996006;28;20022;-84
2022/12/22 07:33:30;;;;;;;34.03;16.52;;;10.60;99.90;;;;;;4995785;28;20023;-84
2022/12/22 07:36:17;;;;;;;30.65;15.60;;;10.60;99.90;;;;;;4995800;28;20018;-83
2022/12/22 07:38:45;;;;;;;32.17;16.23;;;10.60;99.90;;;;;;4997110;28;20062;-84
2022/12/22 07:43:59;;;;;;;33.28;16.52;;;10.60;99.90;;;;;;4997063;28;20037;-85
2022/12/22 07:46:27;;;;;;;38.38;16.88;;;10.60;99.90;;;;;;4995636;28;20469;-85
2022/12/22 07:51:39;;;;;;;30.08;16.88;;;10.60;99.90;;;;;;4996384;28;20089;-84
2022/12/22 07:54:07;;;;;;;30.75;15.55;;;10.50;99.90;;;;;;4996515;28;20111;-84
2022/12/22 07:56:33;;;;;;;31.75;16.75;;;10.60;99.90;;;;;;4976752;28;20359;-84
2022/12/22 07:58:58;;;;;;;35.92;15.77;;;10.50;99.90;;;;;;4984184;28;20040;-86
2022/12/22 08:01:24;;;;;;;32.75;16.60;;;10.60;99.90;;;;;;4999229;28;20027;-84
2022/12/22 08:03:50;;;;;;;50.38;19.98;;;10.50;99.90;;;;;;4987854;28;20041;-84
2022/12/22 08:06:16;;;;;;;36.30;17.48;;;10.50;99.90;;;;;;4977397;28;20443;-84
2022/12/22 08:08:42;;;;;;;47.17;20.58;;;10.50;99.90;;;;;;4991597;28;20027;-85
2022/12/22 08:11:07;;;;;;;50.70;21.15;;;10.50;99.90;;;;;;4942640;28;20525;-84
2022/12/22 08:13:33;;;;;;;50.33;21.05;;;10.50;99.90;;;;;;4958854;28;20037;-84
2022/12/22 08:16:04;;;;;;;43.80;20.45;;;10.50;99.90;;;;;;4958820;28;20037;-84
2022/12/22 08:18:30;;;;;;;49.13;20.77;;;10.50;99.90;;;;;;4959319;28;20043;-86
2022/12/22 08:20:55;;;;;;;53.15;22.30;;;10.50;99.90;;;;;;4958674;28;20463;-84
2022/12/22 08:23:21;;;;;;;62.17;23.48;;;10.50;99.90;;;;;;4959154;28;20066;-84
2022/12/22 08:25:56;;;;;;;50.97;22.58;;;10.50;99.90;;;;;;4958908;28;20443;-82
2022/12/22 08:28:23;;;;;;;55.30;22.83;;;10.50;99.90;;;;;;4975284;28;20026;-83
2022/12/22 08:30:48;;;;;;;60.58;23.15;;;10.50;99.90;;;;;;4942589;28;20027;-83
2022/12/22 08:33:14;;;;;;;59.70;23.65;;;10.50;99.90;;;;;;4958953;28;20088;-83
2022/12/22 08:35:40;;;;;;;54.10;23.20;;;10.50;99.90;;;;;;4958739;28;20137;-84
2022/12/22 08:38:07;;;;;;;53.35;22.52;;;10.50;99.90;;;;;;4974843;28;20035;-83
2022/12/22 08:40:33;;;;;;;59.08;23.63;;;10.50;99.90;;;;;;4974740;28;20055;-83
2022/12/22 08:43:03;;;;;;;50.05;21.98;;;10.50;99.90;;;;;;4976045;28;20073;-83
2022/12/22 08:45:29;;;;;;;45.45;21.63;;;10.50;99.90;;;;;;4975228;28;20026;-83
2022/12/22 08:47:55;;;;;;;66.97;22.95;;;10.50;99.90;;;;;;4958258;28;20098;-84
2022/12/22 08:50:21;;;;;;;63.63;24.52;;;10.50;99.90;;;;;;4977991;28;20023;-83
2022/12/22 08:52:46;;;;;;;49.03;20.92;;;10.50;99.90;;;;;;4993041;28;20505;-88
2022/12/22 08:55:13;;;;;;;56.60;22.55;;;10.50;99.90;;;;;;4992717;28;20077;-84
2022/12/22 08:57:40;;;;;;;55.13;23.38;;;10.50;99.90;;;;;;4993752;28;20038;-83
2022/12/22 09:00:07;;;;;;;55.28;22.50;;;10.50;99.90;;;;;;4994106;28;20018;-82
2022/12/22 09:02:34;;;;;;;48.58;20.50;;;10.50;99.90;;;;;;4978018;28;20029;-82
2022/12/22 09:05:00;;;;;;;50.70;21.30;;;10.50;99.90;;;;;;4995031;28;20034;-82
2022/12/22 09:07:25;;;;;;;49.15;21.35;;;10.50;99.90;;;;;;4977681;28;20125;-83
2022/12/22 09:09:51;;;;;;;57.15;23.27;;;10.50;99.90;;;;;;4977527;28;20543;-83
2022/12/22 09:12:17;;;;;;;69.78;24.42;;;10.40;99.90;;;;;;4977444;28;20482;-82
2022/12/22 09:14:43;;;;;;;61.78;22.80;;;10.40;99.90;;;;;;4993796;28;20023;-82
2022/12/22 09:17:08;;;;;;;56.50;22.10;;;10.40;99.90;;;;;;4994293;28;20038;-82
2022/12/22 09:19:35;;;;;;;58.60;23.30;;;10.50;99.90;;;;;;4993550;28;20030;-83
2022/12/22 09:22:00;;;;;;;48.08;21.05;;;10.40;99.90;;;;;;4977357;28;20062;-82
2022/12/22 09:24:26;;;;;;;61.65;23.00;;;10.40;99.90;;;;;;4995014;28;20058;-82
2022/12/22 09:26:51;;;;;;;66.90;22.75;;;10.40;99.90;;;;;;4981416;28;20034;-83
2022/12/22 09:29:17;;;;;;;53.70;20.95;;;10.40;99.90;;;;;;4997499;28;20518;-84
2022/12/22 09:31:43;;;;;;;54.80;21.95;;;10.40;99.90;;;;;;4997812;28;20114;-83
2022/12/22 09:34:09;;;;;;;48.15;20.65;;;10.40;99.90;;;;;;4998743;28;20022;-82
2022/12/22 09:36:39;;;;;;;55.28;21.65;;;10.40;99.90;;;;;;4981273;28;20061;-82
2022/12/22 09:39:09;;;;;;;53.80;21.40;;;10.30;99.90;;;;;;4998792;28;20081;-83
2022/12/22 09:41:45;;;;;;;66.23;22.47;;;10.30;99.90;;;;;;4997018;28;20081;-83
2022/12/22 09:44:33;;;;;;;63.78;22.88;;;10.30;99.90;;;;;;4997286;28;20041;-83
2022/12/22 09:47:01;;;;;;;75.97;24.15;;;10.30;99.90;;;;;;4996818;28;20113;-84
2022/12/22 09:49:27;;;;;;;65.22;22.65;;;10.30;99.90;;;;;;4996943;28;20365;-84
2022/12/22 09:51:56;;;;;;;62.67;21.20;;;10.30;99.90;;;;;;4997642;28;20382;-84
2022/12/22 09:54:23;;;;;;;49.25;19.38;;;10.30;99.90;;;;;;4996907;28;20022;-84
2022/12/22 09:56:48;;;;;;;49.15;18.10;;;10.30;99.90;;;;;;4980715;28;20351;-82
2022/12/22 09:59:17;;;;;;;47.97;18.80;;;10.30;99.90;;;;;;4998038;28;20038;-83
2022/12/22 10:02:09;;;;;;;56.33;18.75;;;10.20;99.90;;;;;;4996912;28;20023;-82
2022/12/22 10:05:10;;;;;;;48.70;17.52;;;10.20;99.90;;;;;;4996879;28;20022;-84
2022/12/22 10:07:41;;;;;;;;;;;10.20;99.90;;;;;;4937763;29;20055;-83
2022/12/22 10:10:19;;;;;;;41.20;14.65;;;10.20;99.90;;;;;;4996056;28;20258;-83
2022/12/22 10:12:47;;;;;;;38.00;14.00;;;10.20;99.90;;;;;;4978989;28;20031;-83
2022/12/22 10:15:13;;;;;;;42.50;15.32;;;10.10;99.90;;;;;;4988002;28;20037;-83
2022/12/22 10:17:39;;;;;;;46.20;15.57;;;10.00;99.90;;;;;;5020660;28;20034;-81
2022/12/22 10:20:26;;;;;;;41.13;14.23;;;10.00;99.90;;;;;;5016796;28;20031;-90
2022/12/22 10:23:10;;;;;;;41.20;14.15;;;10.00;99.90;;;;;;4985176;28;20007;-80
2022/12/22 10:25:39;;;;;;;44.63;15.23;;;10.00;99.90;;;;;;5008491;28;20038;-82
2022/12/22 10:28:19;;;;;;;37.08;13.52;;;9.90;99.90;;;;;;5020096;28;20030;-90
2022/12/22 10:30:45;;;;;;;43.65;14.68;;;9.90;99.90;;;;;;5004620;28;20026;-84
2022/12/22 10:33:16;;;;;;;34.63;13.75;;;9.90;99.90;;;;;;4988698;28;20033;-83
2022/12/22 10:35:43;;;;;;;;;;;9.90;99.90;;;;;;5004104;28;20018;-82
2022/12/22 10:38:21;;;;;;;37.25;14.13;;;9.90;99.90;;;;;;4997879;28;20254;-82
2022/12/22 10:40:49;;;;;;;37.00;14.07;;;9.90;99.90;;;;;;4995607;28;20055;-82
2022/12/22 10:43:25;;;;;;;38.63;14.10;;;9.80;99.90;;;;;;4997708;28;20022;-83
2022/12/22 10:45:52;;;;;;;32.20;13.40;;;9.80;99.90;;;;;;4995757;28;20014;-83
2022/12/22 10:48:26;;;;;;;36.40;13.02;;;9.80;99.90;;;;;;4995617;28;20026;-82
2022/12/22 10:50:52;;;;;;;32.58;13.20;;;9.80;99.90;;;;;;4996117;28;20106;-82
2022/12/22 10:53:18;;;;;;;34.15;13.27;;;9.80;99.90;;;;;;4995590;28;20026;-83
2022/12/22 10:55:44;;;;;;;35.03;13.05;;;9.80;99.90;;;;;;4995888;28;20026;-82
2022/12/22 10:58:09;;;;;;;35.33;12.68;;;9.80;99.90;;;;;;4995407;28;20120;-83
2022/12/22 11:01:02;;;;;;;33.20;12.80;;;9.80;99.90;;;;;;4994249;28;20022;-83
2022/12/22 11:03:30;;;;;;;33.30;13.25;;;9.80;99.90;;;;;;4980847;28;20029;-82
2022/12/22 11:05:56;;;;;;;31.15;13.35;;;9.80;99.90;;;;;;4978974;28;20020;-83
2022/12/22 11:08:24;;;;;;;30.42;14.27;;;9.80;99.90;;;;;;4978744;28;20028;-83
2022/12/22 11:11:13;;;;;;;34.42;13.80;;;9.80;99.90;;;;;;4995361;28;20029;-82
2022/12/22 11:13:52;;;;;;;34.13;14.40;;;9.80;99.90;;;;;;4995288;28;20014;-83
2022/12/22 11:16:26;;;;;;;35.08;14.70;;;9.80;99.90;;;;;;4995033;28;20366;-83
2022/12/22 11:19:11;;;;;;;32.55;14.32;;;9.80;99.90;;;;;;4995116;28;20026;-82
2022/12/22 11:21:57;;;;;;;34.53;15.57;;;9.80;99.90;;;;;;4996303;28;20028;-83
2022/12/22 11:24:39;;;;;;;45.83;15.73;;;9.80;99.90;;;;;;4994001;28;20029;-82
2022/12/22 11:27:26;;;;;;;41.13;16.10;;;9.80;99.90;;;;;;4994258;28;20041;-83
2022/12/22 11:29:58;;;;;;;34.45;15.45;;;9.80;99.90;;;;;;4995964;28;20046;-83
2022/12/22 11:32:57;;;;;;;36.85;16.50;;;9.80;99.90;;;;;;4995480;28;20029;-83
2022/12/22 11:35:48;;;;;;;46.45;20.25;;;9.80;99.90;;;;;;4993245;28;20033;-83
2022/12/22 11:38:30;;;;;;;43.33;19.80;;;9.80;99.90;;;;;;4993635;28;20034;-83
2022/12/22 11:41:14;;;;;;;50.70;23.02;;;9.70;99.90;;;;;;4994122;28;20042;-84
2022/12/22 11:44:08;;;;;;;47.42;23.52;;;9.80;99.90;;;;;;4990361;28;20080;-82
2022/12/22 11:47:00;;;;;;;51.63;23.90;;;9.80;99.90;;;;;;4986721;28;20018;-82
2022/12/22 11:49:44;;;;;;;51.90;23.08;;;9.70;99.90;;;;;;4994463;28;20042;-84
2022/12/22 11:52:31;;;;;;;55.67;24.35;;;9.80;99.90;;;;;;4994367;28;20031;-85
2022/12/22 11:55:18;;;;;;;48.60;23.27;;;9.70;99.90;;;;;;4994485;28;20022;-83
2022/12/22 11:58:05;;;;;;;51.22;22.55;;;9.80;99.90;;;;;;4995529;28;20030;-83
2022/12/22 12:00:41;;;;;;;45.47;21.50;;;9.80;99.90;;;;;;4994291;28;20031;-83
2022/12/22 12:03:15;;;;;;;51.58;24.63;;;9.90;99.90;;;;;;4996038;28;20018;-83
2022/12/22 12:06:03;;;;;;;49.50;22.92;;;9.90;99.90;;;;;;4994089;28;20018;-83
2022/12/22 12:09:10;;;;;;;43.88;21.65;;;9.90;99.90;;;;;;4993621;28;20093;-83
2022/12/22 12:11:44;;;;;;;42.17;20.50;;;10.00;99.90;;;;;;4993837;28;20085;-83
2022/12/22 12:14:22;;;;;;;53.63;24.05;;;10.00;99.90;;;;;;4993556;28;20029;-83
2022/12/22 12:16:57;;;;;;;40.97;19.83;;;10.00;99.90;;;;;;4992518;28;20085;-82
2022/12/22 12:19:42;;;;;;;41.25;19.90;;;10.10;99.90;;;;;;4989896;28;20110;-83
2022/12/22 12:22:30;;;;;;;40.38;19.85;;;10.10;99.90;;;;;;4973844;28;20038;-83
2022/12/22 12:25:00;;;;;;;33.17;16.98;;;10.20;99.90;;;;;;4974193;28;20522;-83
2022/12/22 12:27:48;;;;;;;33.55;16.88;;;10.20;99.90;;;;;;4973821;28;20371;-83
2022/12/22 12:30:16;;;;;;;32.50;17.35;;;10.20;99.90;;;;;;4979978;28;20035;-83
2022/12/22 12:33:01;;;;;;;28.90;14.02;;;10.30;99.90;;;;;;4973568;28;20015;-82
2022/12/22 12:36:00;;;;;;;22.90;12.95;;;10.30;99.90;;;;;;4973291;28;20034;-82
2022/12/22 12:38:50;;;;;;;21.17;12.05;;;10.20;99.90;;;;;;4973526;28;20074;-83
2022/12/22 12:41:34;;;;;;;27.85;12.50;;;10.20;99.90;;;;;;4991460;28;20505;-84
2022/12/22 12:44:01;;;;;;;22.98;12.75;;;10.20;99.90;;;;;;4977684;28;20117;-83
2022/12/22 12:46:43;;;;;;;26.85;12.85;;;10.20;99.90;;;;;;4993816;28;20056;-84
2022/12/22 12:49:34;;;;;;;24.33;12.63;;;10.30;99.90;;;;;;4993999;28;20018;-85
2022/12/22 12:52:07;;;;;;;22.70;12.45;;;10.30;99.90;;;;;;4993576;28;20373;-83
2022/12/22 12:54:35;;;;;;;24.88;12.23;;;10.30;99.90;;;;;;5014788;28;20007;-89
2022/12/22 12:57:10;;;;;;;21.50;12.55;;;10.30;99.90;;;;;;5013666;28;20061;-87
2022/12/22 12:59:44;;;;;;;24.73;11.93;;;10.30;99.90;;;;;;4996878;28;20018;-83
2022/12/22 13:02:34;;;;;;;22.52;11.93;;;10.30;99.90;;;;;;4992643;28;20025;-84
2022/12/22 13:05:12;;;;;;;18.45;10.02;;;10.30;99.90;;;;;;4993905;28;20042;-83
2022/12/22 13:08:13;;;;;;;21.80;10.25;;;10.30;99.90;;;;;;4992551;28;20424;-82
2022/12/22 13:10:39;;;;;;;20.40;11.00;;;10.30;99.90;;;;;;4993307;28;20484;-83
2022/12/22 13:13:05;;;;;;;22.90;11.18;;;10.30;99.90;;;;;;4993693;28;20042;-83
2022/12/22 13:15:36;;;;;;;21.20;10.63;;;10.20;99.90;;;;;;4991881;28;20029;-84
2022/12/22 13:18:07;;;;;;;26.20;14.35;;;10.20;99.90;;;;;;4992559;28;20084;-83
2022/12/22 13:20:36;;;;;;;22.58;14.45;;;10.10;99.90;;;;;;4992255;28;20411;-83
2022/12/22 13:23:09;;;;;;;24.58;13.85;;;10.10;99.90;;;;;;4992302;28;20026;-83
2022/12/22 13:25:48;;;;;;;27.55;16.00;;;10.10;99.90;;;;;;4993455;28;20490;-83
2022/12/22 13:28:16;;;;;;;26.83;16.30;;;10.10;99.90;;;;;;4993602;28;20030;-85
2022/12/22 13:30:47;;;;;;;25.92;17.05;;;10.10;99.90;;;;;;4993607;28;20377;-83
2022/12/22 13:33:17;;;;;;;31.05;19.60;;;10.10;99.90;;;;;;4993501;28;20031;-83
2022/12/22 13:35:44;;;;;;;28.35;17.30;;;10.10;99.90;;;;;;4992545;28;20025;-83
2022/12/22 13:38:33;;;;;;;29.45;18.40;;;10.00;99.90;;;;;;4992518;28;20118;-83
2022/12/22 13:41:03;;;;;;;30.80;19.38;;;10.00;99.90;;;;;;4993953;28;20046;-83
2022/12/22 13:43:31;;;;;;;29.75;19.23;;;10.10;99.90;;;;;;4992791;28;20022;-83
2022/12/22 13:46:00;;;;;;;32.60;20.25;;;10.10;99.90;;;;;;4992830;28;20026;-83
2022/12/22 13:48:29;;;;;;;28.30;19.33;;;10.00;99.90;;;;;;4992624;28;20030;-83
2022/12/22 13:50:59;;;;;;;25.98;19.42;;;10.10;99.90;;;;;;4994489;28;20524;-83
2022/12/22 13:53:27;;;;;;;30.30;19.98;;;10.10;99.90;;;;;;4994366;28;20022;-84
2022/12/22 13:55:53;;;;;;;34.33;21.58;;;10.10;99.90;;;;;;4993934;28;20470;-83
2022/12/22 13:58:40;;;;;;;31.52;21.50;;;10.10;99.90;;;;;;4997121;28;20062;-82
2022/12/22 14:01:08;;;;;;;30.42;21.00;;;10.10;99.90;;;;;;5000587;28;20014;-83
2022/12/22 14:03:35;;;;;;;35.17;21.52;;;10.10;99.90;;;;;;5017508;28;20042;-86
2022/12/22 14:06:01;;;;;;;33.10;22.02;;;10.10;99.90;;;;;;5017674;28;20070;-84
2022/12/22 14:08:27;;;;;;;35.33;21.45;;;10.10;99.90;;;;;;5000955;28;20013;-84
2022/12/22 14:10:54;;;;;;;32.65;21.10;;;10.10;99.90;;;;;;5003052;28;20077;-87
2022/12/22 14:13:26;;;;;;;32.30;21.20;;;10.20;99.90;;;;;;5020446;28;20017;-83
2022/12/22 14:16:04;;;;;;;32.97;21.65;;;10.20;99.90;;;;;;5019728;28;20023;-84
2022/12/22 14:18:31;;;;;;;34.83;22.63;;;10.20;99.90;;;;;;5019878;28;20056;-90
2022/12/22 14:20:58;;;;;;;33.80;23.10;;;10.20;99.90;;;;;;4993228;28;20089;-84
2022/12/22 14:23:31;;;;;;;33.85;22.95;;;10.30;99.90;;;;;;4996325;28;20117;-83
2022/12/22 14:25:58;;;;;;;37.00;23.88;;;10.30;99.90;;;;;;4995962;28;20474;-82
2022/12/22 14:28:36;;;;;;;36.42;23.17;;;10.30;99.90;;;;;;4979572;28;20073;-83
2022/12/22 14:31:04;;;;;;;39.22;24.00;;;10.30;99.90;;;;;;4995882;28;20751;-84
2022/12/22 14:33:33;;;;;;;35.08;23.63;;;10.20;99.90;;;;;;4979878;28;20506;-83
2022/12/22 14:36:23;;;;;;;40.97;23.60;;;10.20;99.90;;;;;;4995382;28;20447;-83
2022/12/22 14:38:55;;;;;;;35.77;24.07;;;10.30;99.90;;;;;;4992780;28;20137;-83
2022/12/22 14:41:45;;;;;;;40.38;23.92;;;10.20;99.90;;;;;;4997000;28;20343;-83
2022/12/22 14:44:17;;;;;;;36.60;23.33;;;10.20;99.90;;;;;;4995611;28;20041;-83
2022/12/22 14:46:44;;;;;;;36.05;23.70;;;10.20;99.90;;;;;;4995906;28;20096;-83
2022/12/22 14:49:15;;;;;;;33.80;23.63;;;10.20;99.90;;;;;;4979471;28;20018;-83
2022/12/22 14:51:41;;;;;;;35.15;23.45;;;10.10;99.90;;;;;;4995265;28;20097;-83
2022/12/22 14:54:19;;;;;;;33.05;22.42;;;10.10;99.90;;;;;;4995205;28;20462;-83
2022/12/22 14:56:51;;;;;;;34.75;23.27;;;10.20;99.90;;;;;;4995178;28;20042;-83
2022/12/22 14:59:28;;;;;;;31.38;22.58;;;10.20;99.90;;;;;;4995256;28;20019;-83
2022/12/22 15:02:24;;;;;;;32.92;22.42;;;10.10;99.90;;;;;;4995041;28;20026;-83
2022/12/22 15:05:14;;;;;;;31.27;21.33;;;10.10;99.90;;;;;;5008097;28;20431;-83
2022/12/22 15:07:49;;;;;;;30.58;21.25;;;10.10;99.90;;;;;;4995209;28;20026;-83
2022/12/22 15:10:17;;;;;;;31.05;20.58;;;10.20;99.90;;;;;;4994862;28;20565;-82
2022/12/22 15:12:45;;;;;;;31.48;22.20;;;10.10;99.90;;;;;;4994817;28;20058;-84
2022/12/22 15:15:19;;;;;;;36.08;21.65;;;10.10;99.90;;;;;;4995300;28;20026;-88
2022/12/22 15:17:47;;;;;;;36.10;22.98;;;10.10;99.90;;;;;;4994971;28;20533;-84
2022/12/22 15:20:17;;;;;;;30.75;21.23;;;10.10;99.90;;;;;;4997214;28;20021;-83
2022/12/22 15:22:43;;;;;;;31.93;21.57;;;10.10;99.90;;;;;;5017833;28;20022;-88
2022/12/22 15:25:21;;;;;;;32.58;22.75;;;10.10;99.90;;;;;;5015823;28;20264;-83
2022/12/22 15:27:47;;;;;;;31.95;22.33;;;10.10;99.90;;;;;;4999779;28;20125;-83
2022/12/22 15:30:19;;;;;;;36.42;23.30;;;10.10;99.90;;;;;;4994773;28;20156;-85
2022/12/22 15:32:45;;;;;;;36.20;22.55;;;10.10;99.90;;;;;;4995819;28;20459;-83
2022/12/22 15:35:33;;;;;;;35.67;22.77;;;10.10;99.90;;;;;;4996019;28;20084;-83
2022/12/22 15:38:00;;;;;;;35.63;21.90;;;10.10;99.90;;;;;;4994590;28;20070;-83
2022/12/22 15:40:27;;;;;;;33.30;22.10;;;10.00;99.90;;;;;;4995676;28;20113;-83
2022/12/22 15:42:53;;;;;;;33.65;23.08;;;10.00;99.90;;;;;;4994234;28;20045;-83
2022/12/22 15:45:21;;;;;;;36.78;23.55;;;10.00;99.90;;;;;;4994470;28;20015;-84
2022/12/22 15:47:52;;;;;;;34.63;22.23;;;10.00;99.90;;;;;;4994347;28;20022;-84
2022/12/22 15:50:38;;;;;;;36.42;21.70;;;10.00;99.90;;;;;;4994839;28;20029;-83
2022/12/22 15:53:07;;;;;;;35.00;21.83;;;10.00;99.90;;;;;;4994606;28;20451;-83
2022/12/22 15:55:39;;;;;;;33.35;21.45;;;10.00;99.90;;;;;;4994130;28;20026;-83
2022/12/22 15:58:05;;;;;;;30.92;19.73;;;10.00;99.90;;;;;;4994095;28;20120;-83
2022/12/22 16:00:33;;;;;;;32.03;19.98;;;9.90;99.90;;;;;;4995298;28;20531;-84
2022/12/22 16:02:59;;;;;;;30.00;19.35;;;9.90;99.90;;;;;;4977987;28;20022;-84
2022/12/22 16:05:25;;;;;;;33.65;19.85;;;9.90;99.90;;;;;;4978334;28;20040;-84
2022/12/22 16:07:50;;;;;;;36.22;20.95;;;9.90;99.90;;;;;;4977723;28;20463;-84
2022/12/22 16:10:25;;;;;;;29.77;19.63;;;9.90;99.90;;;;;;4978615;28;20049;-83
2022/12/22 16:12:58;;;;;;;36.50;20.92;;;9.90;99.90;;;;;;4993757;28;20022;-83
2022/12/22 16:15:29;;;;;;;31.65;19.58;;;9.90;99.90;;;;;;4991477;28;20050;-84
2022/12/22 16:17:55;;;;;;;;;;;9.90;99.90;;;;;;4994203;28;20022;-86
2022/12/22 16:20:24;;;;;;;30.73;18.88;;;9.90;99.90;;;;;;4996247;28;19972;-87
2022/12/22 16:22:51;;;;;;;32.75;18.90;;;9.90;99.90;;;;;;5009473;28;20438;-84
2022/12/22 16:25:22;;;;;;;34.35;18.83;;;9.90;99.90;;;;;;4995518;28;20022;-85
2022/12/22 16:27:48;;;;;;;;;;;9.90;99.90;;;;;;4996383;28;20026;-86
2022/12/22 16:30:21;;;;;;;36.42;20.10;;;9.90;99.90;;;;;;4995820;28;19906;-84
2022/12/22 16:32:47;;;;;;;39.40;22.77;;;9.80;99.90;;;;;;5000379;28;20026;-87